Terminal Aerodrome Forecast
Issued by NWS Omaha/Valley, NE

Home | Current Version | Previous Version | Text Only | Print | Product List | Glossary Off
Versions: 1 2 3 4 5 6 7 8 9 10 11 12 13 14 15 16 17 18 19 20 21 22 23 24 25 26 27 28 29 30 31 32 33 34 35 36 37 38 39 40 41

000
FTUS43 KOAX 182320
TAFOFK
TAF
KOFK 182320Z 1900/1924 15007KT P6SM BKN018 OVC090
     FM190400 18006KT P6SM OVC050
     FM191000 31011KT P6SM OVC025
      TEMPO 1910/1914 4SM SHRA
     FM191400 33015G25KT P6SM OVC025
     FM191700 34020G30KT P6SM BKN035=

USA.gov is the U.S. government's official web portal to all federal, state and local government web resources and services.